Time,TemperatureF,DewpointF,PressureIn,WindDirection,WindDirectionDegrees,WindSpeedMPH,WindSpeedGustMPH,Humidity,HourlyPrecipIn,Conditions,Clouds,dailyrainin,SoftwareType,DateUTC
2013-02-12 00:05:00,46.1,43.0,30.26,NE,35,0.0,0.0,88,0.00,,,0.00,weatherlink.com 1.10,2013-02-12 08:05:00,
2013-02-12 00:20:00,45.5,43.0,30.26,NE,35,0.0,1.0,89,0.00,,,0.00,weatherlink.com 1.10,2013-02-12 08:20:00,
2013-02-12 00:35:00,45.2,42.0,30.26,NE,35,0.0,0.0,89,0.00,,,0.00,weatherlink.com 1.10,2013-02-12 08:35:00,
2013-02-12 00:50:00,45.6,43.0,30.26,NE,36,0.0,2.0,91,0.00,,,0.00,weatherlink.com 1.10,2013-02-12 08:50:00,
2013-02-12 01:05:00,45.1,43.0,30.26,NE,35,0.0,0.0,91,0.00,,,0.00,weatherlink.com 1.10,2013-02-12 09:05:00,
2013-02-12 01:20:00,44.7,42.0,30.26,NE,36,0.0,0.0,91,0.00,,,0.00,weatherlink.com 1.10,2013-02-12 09:20:00,
2013-02-12 01:35:00,44.9,43.0,30.26,NE,36,0.0,1.0,91,0.00,,,0.00,weatherlink.com 1.10,2013-02-12 09:35:00,
2013-02-12 01:50:00,45.0,43.0,30.27,NE,36,0.0,1.0,92,0.00,,,0.00,weatherlink.com 1.10,2013-02-12 09:50:00,
2013-02-12 02:05:00,44.5,42.0,30.27,NE,36,0.0,0.0,92,0.00,,,0.00,weatherlink.com 1.10,2013-02-12 10:05:00,
2013-02-12 02:20:00,44.0,42.0,30.27,NE,36,0.0,0.0,92,0.00,,,0.00,weatherlink.com 1.10,2013-02-12 10:20:00,
2013-02-12 02:35:00,44.1,42.0,30.27,NE,36,0.0,0.0,92,0.00,,,0.00,weatherlink.com 1.10,2013-02-12 10:35:00,
2013-02-12 02:50:00,44.2,42.0,30.27,NE,36,0.0,0.0,91,0.00,,,0.00,weatherlink.com 1.10,2013-02-12 10:50:00,
2013-02-12 03:05:00,43.7,40.0,30.27,NE,35,0.0,1.0,88,0.00,,,0.00,weatherlink.com 1.10,2013-02-12 11:05:00,
2013-02-12 03:20:00,45.5,39.0,30.27,NE,36,0.0,0.0,78,0.00,,,0.00,weatherlink.com 1.10,2013-02-12 11:20:00,
2013-02-12 03:35:00,47.2,38.0,30.27,NE,36,0.0,1.0,71,0.00,,,0.00,weatherlink.com 1.10,2013-02-12 11:35:00,
2013-02-12 03:50:00,48.3,39.0,30.27,NE,36,0.0,0.0,70,0.00,,,0.00,weatherlink.com 1.10,2013-02-12 11:50:00,
2013-02-12 04:05:00,46.5,40.0,30.28,NE,36,0.0,0.0,77,0.00,,,0.00,weatherlink.com 1.10,2013-02-12 12:05:00,
2013-02-12 04:20:00,45.8,38.0,30.28,NE,36,0.0,0.0,75,0.00,,,0.00,weatherlink.com 1.10,2013-02-12 12:20:00,
2013-02-12 04:35:00,45.4,39.0,30.29,NE,36,0.0,0.0,78,0.00,,,0.00,weatherlink.com 1.10,2013-02-12 12:35:00,
2013-02-12 04:50:00,45.4,38.0,30.28,NE,35,0.0,0.0,76,0.00,,,0.00,weatherlink.com 1.10,2013-02-12 12:50:00,
2013-02-12 05:05:00,45.4,39.0,30.29,NE,35,1.0,1.0,78,0.00,,,0.00,weatherlink.com 1.10,2013-02-12 13:05:00,
2013-02-12 05:20:00,45.4,40.0,30.29,NE,35,0.0,2.0,80,0.00,,,0.00,weatherlink.com 1.10,2013-02-12 13:20:00,
2013-02-12 05:35:00,44.3,39.0,30.29,NE,35,0.0,1.0,80,0.00,,,0.00,weatherlink.com 1.10,2013-02-12 13:35:00,
2013-02-12 05:50:00,44.0,39.0,30.30,NE,36,0.0,1.0,82,0.00,,,0.00,weatherlink.com 1.10,2013-02-12 13:50:00,
2013-02-12 06:05:00,44.1,39.0,30.31,NE,35,0.0,0.0,81,0.00,,,0.00,weatherlink.com 1.10,2013-02-12 14:05:00,
2013-02-12 06:20:00,43.6,38.0,30.31,NE,36,0.0,0.0,82,0.00,,,0.00,weatherlink.com 1.10,2013-02-12 14:20:00,
2013-02-12 06:35:00,43.6,38.0,30.32,NE,36,0.0,0.0,81,0.00,,,0.00,weatherlink.com 1.10,2013-02-12 14:35:00,
2013-02-12 06:50:00,43.6,38.0,30.32,NE,36,0.0,0.0,80,0.00,,,0.00,weatherlink.com 1.10,2013-02-12 14:50:00,
2013-02-12 07:05:00,43.6,38.0,30.33,NE,36,0.0,0.0,80,0.00,,,0.00,weatherlink.com 1.10,2013-02-12 15:05:00,
2013-02-12 07:20:00,43.8,38.0,30.34,NE,36,0.0,0.0,79,0.00,,,0.00,weatherlink.com 1.10,2013-02-12 15:20:00,
2013-02-12 07:35:00,43.7,38.0,30.34,NE,35,0.0,0.0,81,0.00,,,0.00,weatherlink.com 1.10,2013-02-12 15:35:00,
2013-02-12 07:50:00,43.8,40.0,30.35,NE,35,0.0,0.0,85,0.00,,,0.00,weatherlink.com 1.10,2013-02-12 15:50:00,
2013-02-12 08:05:00,43.7,40.0,30.36,NE,35,0.0,0.0,86,0.00,,,0.00,weatherlink.com 1.10,2013-02-12 16:05:00,
2013-02-12 08:20:00,43.8,38.0,30.36,NE,35,0.0,1.0,80,0.00,,,0.00,weatherlink.com 1.10,2013-02-12 16:20:00,
2013-02-12 08:35:00,44.9,40.0,30.36,NE,36,0.0,0.0,82,0.00,,,0.00,weatherlink.com 1.10,2013-02-12 16:35:00,
2013-02-12 08:51:00,45.1,40.0,30.37,NE,36,0.0,0.0,83,0.00,,,0.00,weatherlink.com 1.10,2013-02-12 16:51:00,
2013-02-12 09:06:00,45.5,40.0,30.37,NE,36,0.0,1.0,80,0.00,,,0.00,weatherlink.com 1.10,2013-02-12 17:06:00,
2013-02-12 09:21:00,46.1,41.0,30.37,NE,36,0.0,2.0,83,0.00,,,0.00,weatherlink.com 1.10,2013-02-12 17:21:00,
2013-02-12 09:36:00,47.2,42.0,30.38,NE,36,0.0,1.0,83,0.00,,,0.00,weatherlink.com 1.10,2013-02-12 17:36:00,
2013-02-12 09:51:00,48.5,44.0,30.38,NE,36,0.0,2.0,84,0.00,,,0.00,weatherlink.com 1.10,2013-02-12 17:51:00,
2013-02-12 10:06:00,49.3,44.0,30.38,NE,36,0.0,4.0,82,0.00,,,0.00,weatherlink.com 1.10,2013-02-12 18:06:00,
2013-02-12 10:21:00,50.2,44.0,30.37,NE,36,0.0,4.0,79,0.00,,,0.00,weatherlink.com 1.10,2013-02-12 18:21:00,
2013-02-12 10:36:00,51.1,45.0,30.38,NE,36,0.0,5.0,79,0.00,,,0.00,weatherlink.com 1.10,2013-02-12 18:36:00,
2013-02-12 10:51:00,51.7,45.0,30.38,NE,36,0.0,4.0,78,0.00,,,0.00,weatherlink.com 1.10,2013-02-12 18:51:00,
2013-02-12 11:06:00,52.7,44.0,30.38,NE,36,0.0,4.0,73,0.00,,,0.00,weatherlink.com 1.10,2013-02-12 19:06:00,
2013-02-12 11:21:00,53.4,44.0,30.38,NE,36,0.0,5.0,71,0.00,,,0.00,weatherlink.com 1.10,2013-02-12 19:21:00,
2013-02-12 11:36:00,53.8,44.0,30.38,NE,41,0.0,6.0,69,0.00,,,0.00,weatherlink.com 1.10,2013-02-12 19:36:00,
2013-02-12 11:51:00,53.8,44.0,30.38,NE,44,0.0,7.0,70,0.00,,,0.00,weatherlink.com 1.10,2013-02-12 19:51:00,
2013-02-12 12:06:00,54.5,44.0,30.38,North,11,0.0,5.0,67,0.00,,,0.00,weatherlink.com 1.10,2013-02-12 20:06:00,
2013-02-12 12:21:00,55.1,43.0,30.37,NNE,27,6.0,6.0,65,0.00,,,0.00,weatherlink.com 1.10,2013-02-12 20:21:00,
2013-02-12 12:36:00,55.5,44.0,30.37,NE,46,0.0,8.0,66,0.00,,,0.00,weatherlink.com 1.10,2013-02-12 20:36:00,
2013-02-12 12:51:00,54.8,44.0,30.36,NE,47,5.0,9.0,68,0.00,,,0.00,weatherlink.com 1.10,2013-02-12 20:51:00,
2013-02-12 13:06:00,55.5,44.0,30.36,ENE,58,2.0,6.0,65,0.00,,,0.00,weatherlink.com 1.10,2013-02-12 21:06:00,
2013-02-12 13:21:00,55.6,43.0,30.36,NE,44,1.0,7.0,63,0.00,,,0.00,weatherlink.com 1.10,2013-02-12 21:21:00,
2013-02-12 13:36:00,56.1,43.0,30.35,ENE,59,3.0,6.0,61,0.00,,,0.00,weatherlink.com 1.10,2013-02-12 21:36:00,
2013-02-12 13:51:00,56.6,44.0,30.35,ENE,59,0.0,8.0,62,0.00,,,0.00,weatherlink.com 1.10,2013-02-12 21:51:00,
2013-02-12 14:06:00,57.3,43.0,30.34,NE,46,0.0,7.0,59,0.00,,,0.00,weatherlink.com 1.10,2013-02-12 22:06:00,
2013-02-12 14:21:00,57.3,42.0,30.34,North,358,5.0,6.0,57,0.00,,,0.00,weatherlink.com 1.10,2013-02-12 22:21:00,
2013-02-12 14:36:00,57.5,42.0,30.34,North,352,2.0,7.0,57,0.00,,,0.00,weatherlink.com 1.10,2013-02-12 22:36:00,
2013-02-12 14:51:00,58.3,43.0,30.34,ENE,60,5.0,7.0,57,0.00,,,0.00,weatherlink.com 1.10,2013-02-12 22:51:00,
2013-02-12 15:06:00,57.6,42.0,30.34,NE,52,1.0,8.0,57,0.00,,,0.00,weatherlink.com 1.10,2013-02-12 23:06:00,
2013-02-12 15:21:00,56.7,44.0,30.34,ENE,66,0.0,6.0,63,0.00,,,0.00,weatherlink.com 1.10,2013-02-12 23:21:00,
2013-02-12 15:36:00,56.1,45.0,30.34,NE,54,1.0,6.0,67,0.00,,,0.00,weatherlink.com 1.10,2013-02-12 23:36:00,
2013-02-12 15:51:00,56.2,45.0,30.34,NE,49,2.0,5.0,67,0.00,,,0.00,weatherlink.com 1.10,2013-02-12 23:51:00,
2013-02-12 16:06:00,56.1,45.0,30.34,NNE,14,0.0,6.0,67,0.00,,,0.00,weatherlink.com 1.10,2013-02-13 00:06:00,
2013-02-12 16:21:00,56.0,46.0,30.33,NE,41,4.0,6.0,68,0.00,,,0.00,weatherlink.com 1.10,2013-02-13 00:21:00,
2013-02-12 16:36:00,55.8,46.0,30.32,NE,44,0.0,6.0,70,0.00,,,0.00,weatherlink.com 1.10,2013-02-13 00:36:00,
2013-02-12 16:51:00,54.9,46.0,30.32,NE,44,2.0,5.0,72,0.00,,,0.00,weatherlink.com 1.10,2013-02-13 00:51:00,
2013-02-12 17:06:00,53.7,46.0,30.32,NE,43,0.0,5.0,74,0.00,,,0.00,weatherlink.com 1.10,2013-02-13 01:06:00,
2013-02-12 17:21:00,52.7,46.0,30.33,NE,43,0.0,4.0,78,0.00,,,0.00,weatherlink.com 1.10,2013-02-13 01:21:00,
2013-02-12 17:36:00,51.8,46.0,30.33,NE,44,0.0,2.0,79,0.00,,,0.00,weatherlink.com 1.10,2013-02-13 01:36:00,
2013-02-12 17:51:00,50.7,45.0,30.33,NE,44,0.0,1.0,82,0.00,,,0.00,weatherlink.com 1.10,2013-02-13 01:51:00,
2013-02-12 18:06:00,49.9,45.0,30.33,NE,44,0.0,0.0,84,0.00,,,0.00,weatherlink.com 1.10,2013-02-13 02:06:00,
2013-02-12 18:21:00,49.2,44.0,30.33,NE,44,0.0,0.0,83,0.00,,,0.00,weatherlink.com 1.10,2013-02-13 02:21:00,
2013-02-12 18:36:00,48.7,44.0,30.33,NE,44,0.0,0.0,84,0.00,,,0.00,weatherlink.com 1.10,2013-02-13 02:36:00,
2013-02-12 18:51:00,48.6,41.0,30.33,NE,44,0.0,1.0,74,0.00,,,0.00,weatherlink.com 1.10,2013-02-13 02:51:00,
2013-02-12 19:06:00,50.4,37.0,30.33,NE,43,0.0,0.0,61,0.00,,,0.00,weatherlink.com 1.10,2013-02-13 03:06:00,
2013-02-12 19:21:00,51.9,37.0,30.33,NE,43,0.0,1.0,57,0.00,,,0.00,weatherlink.com 1.10,2013-02-13 03:21:00,
2013-02-12 19:36:00,50.5,41.0,30.33,NE,44,0.0,2.0,70,0.00,,,0.00,weatherlink.com 1.10,2013-02-13 03:36:00,
2013-02-12 19:51:00,49.2,38.0,30.34,NE,44,0.0,0.0,65,0.00,,,0.00,weatherlink.com 1.10,2013-02-13 03:51:00,
2013-02-12 20:06:00,49.1,38.0,30.34,NE,44,0.0,0.0,66,0.00,,,0.00,weatherlink.com 1.10,2013-02-13 04:06:00,
2013-02-12 20:21:00,49.3,37.0,30.34,NE,43,0.0,0.0,63,0.00,,,0.00,weatherlink.com 1.10,2013-02-13 04:21:00,
2013-02-12 20:36:00,50.5,37.0,30.34,NE,43,0.0,1.0,61,0.00,,,0.00,weatherlink.com 1.10,2013-02-13 04:36:00,
2013-02-12 20:51:00,50.8,38.0,30.34,NE,43,0.0,1.0,62,0.00,,,0.00,weatherlink.com 1.10,2013-02-13 04:51:00,
2013-02-12 21:07:00,51.2,38.0,30.34,NE,43,0.0,0.0,62,0.00,,,0.00,weatherlink.com 1.10,2013-02-13 05:07:00,
2013-02-12 21:22:00,50.7,38.0,30.34,NE,44,0.0,1.0,63,0.00,,,0.00,weatherlink.com 1.10,2013-02-13 05:22:00,
2013-02-12 21:37:00,50.9,39.0,30.34,NE,44,0.0,0.0,63,0.00,,,0.00,weatherlink.com 1.10,2013-02-13 05:37:00,
2013-02-12 21:52:00,50.9,39.0,30.35,NE,44,0.0,0.0,63,0.00,,,0.00,weatherlink.com 1.10,2013-02-13 05:52:00,
2013-02-12 22:07:00,51.4,40.0,30.35,NE,44,1.0,2.0,65,0.00,,,0.00,weatherlink.com 1.10,2013-02-13 06:07:00,
2013-02-12 22:22:00,50.7,41.0,30.35,NE,43,0.0,4.0,69,0.00,,,0.00,weatherlink.com 1.10,2013-02-13 06:22:00,
2013-02-12 22:37:00,50.5,41.0,30.35,SSE,157,1.0,5.0,70,0.00,,,0.00,weatherlink.com 1.10,2013-02-13 06:37:00,
2013-02-12 22:52:00,50.9,40.0,30.34,SSE,158,0.0,5.0,67,0.00,,,0.00,weatherlink.com 1.10,2013-02-13 06:52:00,
2013-02-12 23:07:00,51.9,42.0,30.35,SSE,163,0.0,4.0,70,0.00,,,0.00,weatherlink.com 1.10,2013-02-13 07:07:00,
2013-02-12 23:22:00,51.8,41.0,30.35,SSE,163,0.0,1.0,66,0.00,,,0.00,weatherlink.com 1.10,2013-02-13 07:22:00,
2013-02-12 23:37:00,51.7,40.0,30.35,SSE,163,1.0,1.0,65,0.00,,,0.00,weatherlink.com 1.10,2013-02-13 07:37:00,
2013-02-12 23:53:00,51.4,41.0,30.35,South,183,0.0,4.0,67,0.00,,,0.00,weatherlink.com 1.10,2013-02-13 07:53:00,